Hoonah, Alaska
Current Conditions -  °F | °C
As of 10:56 PM on Saturday 25 Oct 2014 (Local Time) from PAOH Reporting Station
Clear Clear  
Wind Chill: 32°   Ceiling: Unl
Heat Index: 32°   Visibility: 10mi
Dew Point: 32°   Wind: 0mph
Humidity: 100%   Direction: NA
Pressure: 29.74"   Gusts: NA
Location:  58.11°N, 135.45°W
Report Text: PAOH 260656Z AUTO 00000KT 10SM CLR 00/00 A2974 RMK AO2 TSNO T00000000 SLP071 $
Loading
Personal Weather Stations






























Interactive Weather Map
Tropical Storm Tracking
New forecast layout! Learn more

10-Day Weather Forecast

Advertisements
Track Severe Weather on mobile